sensor_id;sensor_type;location;lat;lon;timestamp;temperature;humidity
19654;DHT22;9975;48.046;7.804;2023-05-08T01:56:36;14.90;99.90
19654;DHT22;9975;48.046;7.804;2023-05-08T01:59:05;14.90;99.90
19654;DHT22;9975;48.046;7.804;2023-05-08T02:01:32;15.00;99.90
19654;DHT22;9975;48.046;7.804;2023-05-08T02:03:59;15.00;99.90
19654;DHT22;9975;48.046;7.804;2023-05-08T02:06:26;15.00;99.90
19654;DHT22;9975;48.046;7.804;2023-05-08T02:08:53;15.00;99.90
19654;DHT22;9975;48.046;7.804;2023-05-08T02:11:21;15.00;99.90
19654;DHT22;9975;48.046;7.804;2023-05-08T02:13:49;15.00;99.90
19654;DHT22;9975;48.046;7.804;2023-05-08T02:16:16;15.00;99.90
19654;DHT22;9975;48.046;7.804;2023-05-08T02:18:52;15.00;99.90
19654;DHT22;9975;48.046;7.804;2023-05-08T02:21:19;14.90;99.90
19654;DHT22;9975;48.046;7.804;2023-05-08T02:23:47;14.80;99.90
19654;DHT22;9975;48.046;7.804;2023-05-08T02:26:14;14.80;99.90
19654;DHT22;9975;48.046;7.804;2023-05-08T02:28:40;14.80;99.90
19654;DHT22;9975;48.046;7.804;2023-05-08T02:31:08;14.90;99.90
19654;DHT22;9975;48.046;7.804;2023-05-08T02:33:37;14.90;99.90
19654;DHT22;9975;48.046;7.804;2023-05-08T02:36:03;14.90;99.90
19654;DHT22;9975;48.046;7.804;2023-05-08T02:38:30;14.80;99.90
19654;DHT22;9975;48.046;7.804;2023-05-08T02:40:59;14.80;99.90
19654;DHT22;9975;48.046;7.804;2023-05-08T02:43:26;14.80;99.90
19654;DHT22;9975;48.046;7.804;2023-05-08T02:46:13;14.80;99.90
19654;DHT22;9975;48.046;7.804;2023-05-08T02:49:02;14.90;99.90
19654;DHT22;9975;48.046;7.804;2023-05-08T02:51:49;14.80;99.90
19654;DHT22;9975;48.046;7.804;2023-05-08T02:54:24;14.80;99.90
19654;DHT22;9975;48.046;7.804;2023-05-08T02:57:22;14.80;99.90
19654;DHT22;9975;48.046;7.804;2023-05-08T03:00:04;14.80;99.90
19654;DHT22;9975;48.046;7.804;2023-05-08T03:02:40;14.80;99.90
19654;DHT22;9975;48.046;7.804;2023-05-08T03:05:28;14.80;99.90
19654;DHT22;9975;48.046;7.804;2023-05-08T03:07:58;14.80;99.90
19654;DHT22;9975;48.046;7.804;2023-05-08T03:10:33;14.80;99.90
19654;DHT22;9975;48.046;7.804;2023-05-08T03:13:02;14.80;99.90
19654;DHT22;9975;48.046;7.804;2023-05-08T03:15:44;14.90;99.90
19654;DHT22;9975;48.046;7.804;2023-05-08T03:18:13;14.90;99.90
19654;DHT22;9975;48.046;7.804;2023-05-08T03:20:43;14.80;99.90
19654;DHT22;9975;48.046;7.804;2023-05-08T03:23:10;14.80;99.90
19654;DHT22;9975;48.046;7.804;2023-05-08T03:25:39;14.80;99.90
19654;DHT22;9975;48.046;7.804;2023-05-08T03:28:06;14.80;99.90
19654;DHT22;9975;48.046;7.804;2023-05-08T03:30:36;14.80;99.90
19654;DHT22;9975;48.046;7.804;2023-05-08T03:33:03;14.80;99.90
19654;DHT22;9975;48.046;7.804;2023-05-08T03:35:30;14.80;99.90
19654;DHT22;9975;48.046;7.804;2023-05-08T03:37:57;14.70;99.90
19654;DHT22;9975;48.046;7.804;2023-05-08T03:40:23;14.70;99.90
19654;DHT22;9975;48.046;7.804;2023-05-08T03:42:49;14.70;99.90
19654;DHT22;9975;48.046;7.804;2023-05-08T03:45:15;14.70;99.90
19654;DHT22;9975;48.046;7.804;2023-05-08T03:47:42;14.80;99.90
19654;DHT22;9975;48.046;7.804;2023-05-08T03:50:08;14.70;99.90
19654;DHT22;9975;48.046;7.804;2023-05-08T03:52:34;14.70;99.90
19654;DHT22;9975;48.046;7.804;2023-05-08T03:55:00;14.70;99.90
19654;DHT22;9975;48.046;7.804;2023-05-08T03:57:32;14.70;99.90
19654;DHT22;9975;48.046;7.804;2023-05-08T04:00:30;14.60;99.90
19654;DHT22;9975;48.046;7.804;2023-05-08T04:05:50;14.60;99.90
19654;DHT22;9975;48.046;7.804;2023-05-08T04:08:21;14.60;99.90
19654;DHT22;9975;48.046;7.804;2023-05-08T04:11:03;14.60;99.90
19654;DHT22;9975;48.046;7.804;2023-05-08T04:13:33;14.70;99.90
19654;DHT22;9975;48.046;7.804;2023-05-08T04:16:07;14.70;99.90
19654;DHT22;9975;48.046;7.804;2023-05-08T04:18:36;14.70;99.90
19654;DHT22;9975;48.046;7.804;2023-05-08T04:21:07;14.70;99.90
19654;DHT22;9975;48.046;7.804;2023-05-08T04:23:34;14.70;99.90
19654;DHT22;9975;48.046;7.804;2023-05-08T04:26:01;14.70;99.90
19654;DHT22;9975;48.046;7.804;2023-05-08T04:28:28;14.70;99.90
19654;DHT22;9975;48.046;7.804;2023-05-08T04:30:55;14.70;99.90
19654;DHT22;9975;48.046;7.804;2023-05-08T04:33:21;14.70;99.90
19654;DHT22;9975;48.046;7.804;2023-05-08T04:35:48;14.70;99.90
19654;DHT22;9975;48.046;7.804;2023-05-08T04:38:14;14.70;99.90
19654;DHT22;9975;48.046;7.804;2023-05-08T04:40:40;14.80;99.90
19654;DHT22;9975;48.046;7.804;2023-05-08T04:43:06;14.80;99.90
19654;DHT22;9975;48.046;7.804;2023-05-08T04:45:31;14.80;99.90
19654;DHT22;9975;48.046;7.804;2023-05-08T04:47:57;14.80;99.90
19654;DHT22;9975;48.046;7.804;2023-05-08T04:50:22;14.80;99.90
19654;DHT22;9975;48.046;7.804;2023-05-08T04:52:48;14.80;99.90
19654;DHT22;9975;48.046;7.804;2023-05-08T04:55:14;14.80;99.90
19654;DHT22;9975;48.046;7.804;2023-05-08T04:57:39;14.80;99.90
19654;DHT22;9975;48.046;7.804;2023-05-08T05:00:05;14.80;99.90
19654;DHT22;9975;48.046;7.804;2023-05-08T05:02:31;14.80;99.90
19654;DHT22;9975;48.046;7.804;2023-05-08T05:04:57;14.90;99.90
19654;DHT22;9975;48.046;7.804;2023-05-08T05:07:23;14.90;99.90
19654;DHT22;9975;48.046;7.804;2023-05-08T05:09:49;14.90;99.90
19654;DHT22;9975;48.046;7.804;2023-05-08T05:12:14;14.90;99.90
19654;DHT22;9975;48.046;7.804;2023-05-08T05:14:40;14.90;99.90
19654;DHT22;9975;48.046;7.804;2023-05-08T05:17:06;14.90;99.90
19654;DHT22;9975;48.046;7.804;2023-05-08T05:19:31;14.90;99.90
19654;DHT22;9975;48.046;7.804;2023-05-08T05:21:57;14.90;99.90
19654;DHT22;9975;48.046;7.804;2023-05-08T05:24:24;14.90;99.90
19654;DHT22;9975;48.046;7.804;2023-05-08T05:26:49;14.90;99.90
19654;DHT22;9975;48.046;7.804;2023-05-08T05:29:15;15.00;99.90
19654;DHT22;9975;48.046;7.804;2023-05-08T05:31:41;15.00;99.90
19654;DHT22;9975;48.046;7.804;2023-05-08T05:34:07;15.00;99.90
19654;DHT22;9975;48.046;7.804;2023-05-08T05:36:33;15.00;99.90
19654;DHT22;9975;48.046;7.804;2023-05-08T05:38:59;15.00;99.90
19654;DHT22;9975;48.046;7.804;2023-05-08T05:41:24;14.90;99.90
19654;DHT22;9975;48.046;7.804;2023-05-08T05:43:50;15.00;99.90
19654;DHT22;9975;48.046;7.804;2023-05-08T05:46:15;15.10;99.90
19654;DHT22;9975;48.046;7.804;2023-05-08T05:48:42;15.10;99.90
19654;DHT22;9975;48.046;7.804;2023-05-08T05:51:08;15.00;99.90
19654;DHT22;9975;48.046;7.804;2023-05-08T05:53:34;15.10;99.90
19654;DHT22;9975;48.046;7.804;2023-05-08T05:56:00;15.00;99.90
19654;DHT22;9975;48.046;7.804;2023-05-08T05:58:25;15.00;99.90
19654;DHT22;9975;48.046;7.804;2023-05-08T06:00:52;15.00;99.90
19654;DHT22;9975;48.046;7.804;2023-05-08T06:03:18;15.00;99.90
19654;DHT22;9975;48.046;7.804;2023-05-08T06:05:45;15.00;99.90
19654;DHT22;9975;48.046;7.804;2023-05-08T06:08:11;15.00;99.90
19654;DHT22;9975;48.046;7.804;2023-05-08T06:10:37;15.00;99.90
19654;DHT22;9975;48.046;7.804;2023-05-08T06:13:02;15.10;99.90
19654;DHT22;9975;48.046;7.804;2023-05-08T06:15:28;15.10;99.90
19654;DHT22;9975;48.046;7.804;2023-05-08T06:17:53;15.10;99.90
19654;DHT22;9975;48.046;7.804;2023-05-08T06:20:19;15.20;99.90
19654;DHT22;9975;48.046;7.804;2023-05-08T06:22:45;15.20;99.90
19654;DHT22;9975;48.046;7.804;2023-05-08T06:25:10;15.30;99.90
19654;DHT22;9975;48.046;7.804;2023-05-08T06:27:36;15.40;99.90
19654;DHT22;9975;48.046;7.804;2023-05-08T06:30:02;15.40;99.90
19654;DHT22;9975;48.046;7.804;2023-05-08T06:32:29;15.50;99.90
19654;DHT22;9975;48.046;7.804;2023-05-08T06:34:55;15.50;99.90
19654;DHT22;9975;48.046;7.804;2023-05-08T06:37:21;15.60;99.90
19654;DHT22;9975;48.046;7.804;2023-05-08T06:39:47;15.70;99.90
19654;DHT22;9975;48.046;7.804;2023-05-08T06:42:12;15.90;99.90
19654;DHT22;9975;48.046;7.804;2023-05-08T06:44:38;16.00;99.90
19654;DHT22;9975;48.046;7.804;2023-05-08T06:47:05;16.10;99.90
19654;DHT22;9975;48.046;7.804;2023-05-08T06:49:31;16.10;99.90
19654;DHT22;9975;48.046;7.804;2023-05-08T06:51:56;16.00;99.90
19654;DHT22;9975;48.046;7.804;2023-05-08T06:54:22;16.10;99.90
19654;DHT22;9975;48.046;7.804;2023-05-08T06:56:48;16.00;99.90
19654;DHT22;9975;48.046;7.804;2023-05-08T06:59:13;16.10;99.90
19654;DHT22;9975;48.046;7.804;2023-05-08T07:01:39;16.10;99.90
19654;DHT22;9975;48.046;7.804;2023-05-08T07:04:06;16.10;99.90
19654;DHT22;9975;48.046;7.804;2023-05-08T07:06:31;16.10;99.90
19654;DHT22;9975;48.046;7.804;2023-05-08T07:08:57;16.00;99.90
19654;DHT22;9975;48.046;7.804;2023-05-08T07:11:22;16.00;99.90
19654;DHT22;9975;48.046;7.804;2023-05-08T07:13:48;16.10;99.90
19654;DHT22;9975;48.046;7.804;2023-05-08T07:16:17;16.10;99.90
19654;DHT22;9975;48.046;7.804;2023-05-08T07:18:42;16.00;99.90
19654;DHT22;9975;48.046;7.804;2023-05-08T07:21:09;16.00;99.90
19654;DHT22;9975;48.046;7.804;2023-05-08T07:23:35;16.00;99.90
19654;DHT22;9975;48.046;7.804;2023-05-08T07:26:01;16.00;99.90
19654;DHT22;9975;48.046;7.804;2023-05-08T07:28:26;16.00;99.90
19654;DHT22;9975;48.046;7.804;2023-05-08T07:30:52;16.10;99.90
19654;DHT22;9975;48.046;7.804;2023-05-08T07:33:17;16.20;99.90
19654;DHT22;9975;48.046;7.804;2023-05-08T07:35:44;16.30;99.90
19654;DHT22;9975;48.046;7.804;2023-05-08T07:38:09;16.30;99.90
19654;DHT22;9975;48.046;7.804;2023-05-08T07:40:35;16.30;99.90
19654;DHT22;9975;48.046;7.804;2023-05-08T07:43:01;16.30;99.90
19654;DHT22;9975;48.046;7.804;2023-05-08T07:45:26;16.40;99.90
19654;DHT22;9975;48.046;7.804;2023-05-08T07:47:56;16.50;99.90
19654;DHT22;9975;48.046;7.804;2023-05-08T07:50:23;16.50;99.90
19654;DHT22;9975;48.046;7.804;2023-05-08T07:52:49;16.60;99.90
19654;DHT22;9975;48.046;7.804;2023-05-08T07:55:15;16.70;99.90
19654;DHT22;9975;48.046;7.804;2023-05-08T07:57:42;16.90;99.90
19654;DHT22;9975;48.046;7.804;2023-05-08T08:00:10;16.90;99.90
19654;DHT22;9975;48.046;7.804;2023-05-08T08:02:36;17.00;99.90
19654;DHT22;9975;48.046;7.804;2023-05-08T08:05:03;16.90;99.90
19654;DHT22;9975;48.046;7.804;2023-05-08T08:07:29;17.00;99.90
19654;DHT22;9975;48.046;7.804;2023-05-08T08:09:57;17.20;99.90
19654;DHT22;9975;48.046;7.804;2023-05-08T08:12:23;17.30;99.90
19654;DHT22;9975;48.046;7.804;2023-05-08T08:14:48;17.40;99.90
19654;DHT22;9975;48.046;7.804;2023-05-08T08:17:14;17.50;99.90
19654;DHT22;9975;48.046;7.804;2023-05-08T08:19:40;17.70;99.90
19654;DHT22;9975;48.046;7.804;2023-05-08T08:22:05;17.80;99.90
19654;DHT22;9975;48.046;7.804;2023-05-08T08:24:31;17.80;99.90
19654;DHT22;9975;48.046;7.804;2023-05-08T08:26:57;18.00;99.90
19654;DHT22;9975;48.046;7.804;2023-05-08T08:29:23;18.20;99.90
19654;DHT22;9975;48.046;7.804;2023-05-08T08:31:48;18.40;99.90
19654;DHT22;9975;48.046;7.804;2023-05-08T08:34:14;18.50;99.90
19654;DHT22;9975;48.046;7.804;2023-05-08T08:36:39;18.50;99.90
19654;DHT22;9975;48.046;7.804;2023-05-08T08:39:05;18.40;99.90
19654;DHT22;9975;48.046;7.804;2023-05-08T08:41:31;18.30;99.90
19654;DHT22;9975;48.046;7.804;2023-05-08T08:43:57;18.10;99.90
19654;DHT22;9975;48.046;7.804;2023-05-08T08:46:25;18.30;99.90
19654;DHT22;9975;48.046;7.804;2023-05-08T08:48:53;18.50;99.90
19654;DHT22;9975;48.046;7.804;2023-05-08T08:51:40;18.50;99.90
19654;DHT22;9975;48.046;7.804;2023-05-08T08:54:10;18.60;99.90
19654;DHT22;9975;48.046;7.804;2023-05-08T08:56:40;18.30;99.90
19654;DHT22;9975;48.046;7.804;2023-05-08T08:59:10;18.30;99.90
19654;DHT22;9975;48.046;7.804;2023-05-08T09:01:38;18.40;99.90
19654;DHT22;9975;48.046;7.804;2023-05-08T09:04:04;18.60;99.90
19654;DHT22;9975;48.046;7.804;2023-05-08T09:06:34;18.70;99.90
19654;DHT22;9975;48.046;7.804;2023-05-08T09:09:01;18.70;99.90
19654;DHT22;9975;48.046;7.804;2023-05-08T09:11:27;18.70;99.90
19654;DHT22;9975;48.046;7.804;2023-05-08T09:13:56;18.90;99.90
19654;DHT22;9975;48.046;7.804;2023-05-08T09:16:23;18.90;99.90
19654;DHT22;9975;48.046;7.804;2023-05-08T09:18:49;18.60;99.90
19654;DHT22;9975;48.046;7.804;2023-05-08T09:21:14;18.60;99.90
19654;DHT22;9975;48.046;7.804;2023-05-08T09:24:01;18.60;99.90
19654;DHT22;9975;48.046;7.804;2023-05-08T09:26:38;18.80;99.90
19654;DHT22;9975;48.046;7.804;2023-05-08T09:29:11;18.80;99.90
19654;DHT22;9975;48.046;7.804;2023-05-08T09:31:40;18.80;99.90
19654;DHT22;9975;48.046;7.804;2023-05-08T09:34:11;18.70;99.90
19654;DHT22;9975;48.046;7.804;2023-05-08T09:36:46;18.90;99.90
19654;DHT22;9975;48.046;7.804;2023-05-08T09:39:12;18.90;99.90
19654;DHT22;9975;48.046;7.804;2023-05-08T09:42:04;19.10;99.90
19654;DHT22;9975;48.046;7.804;2023-05-08T09:44:52;19.10;99.90
19654;DHT22;9975;48.046;7.804;2023-05-08T09:47:19;19.10;99.90
19654;DHT22;9975;48.046;7.804;2023-05-08T09:49:55;19.10;99.90
19654;DHT22;9975;48.046;7.804;2023-05-08T09:52:22;19.00;99.90
19654;DHT22;9975;48.046;7.804;2023-05-08T09:54:55;19.20;99.90
19654;DHT22;9975;48.046;7.804;2023-05-08T09:57:20;19.10;99.90
19654;DHT22;9975;48.046;7.804;2023-05-08T09:59:46;19.20;99.90
19654;DHT22;9975;48.046;7.804;2023-05-08T10:02:12;19.00;99.90
19654;DHT22;9975;48.046;7.804;2023-05-08T10:04:40;19.10;99.90
19654;DHT22;9975;48.046;7.804;2023-05-08T10:07:06;19.10;99.90
19654;DHT22;9975;48.046;7.804;2023-05-08T10:09:32;18.80;99.90
19654;DHT22;9975;48.046;7.804;2023-05-08T10:11:57;19.10;99.90
19654;DHT22;9975;48.046;7.804;2023-05-08T10:14:23;19.20;99.90
19654;DHT22;9975;48.046;7.804;2023-05-08T10:16:51;19.20;99.90
19654;DHT22;9975;48.046;7.804;2023-05-08T10:19:23;19.20;99.90
19654;DHT22;9975;48.046;7.804;2023-05-08T10:21:52;19.10;99.90
19654;DHT22;9975;48.046;7.804;2023-05-08T10:24:19;19.30;99.90
19654;DHT22;9975;48.046;7.804;2023-05-08T10:26:55;19.60;99.90
19654;DHT22;9975;48.046;7.804;2023-05-08T10:29:27;19.50;99.90
19654;DHT22;9975;48.046;7.804;2023-05-08T10:31:57;19.90;99.90
19654;DHT22;9975;48.046;7.804;2023-05-08T10:34:26;20.40;99.90
19654;DHT22;9975;48.046;7.804;2023-05-08T10:36:52;20.90;99.90
19654;DHT22;9975;48.046;7.804;2023-05-08T10:39:19;21.50;99.90
19654;DHT22;9975;48.046;7.804;2023-05-08T10:41:47;22.10;99.90
19654;DHT22;9975;48.046;7.804;2023-05-08T10:44:13;22.50;99.90
19654;DHT22;9975;48.046;7.804;2023-05-08T10:46:48;22.70;99.90
19654;DHT22;9975;48.046;7.804;2023-05-08T10:57:23;23.80;96.30
19654;DHT22;9975;48.046;7.804;2023-05-08T10:59:49;24.20;96.90
19654;DHT22;9975;48.046;7.804;2023-05-08T11:02:15;24.60;94.00
19654;DHT22;9975;48.046;7.804;2023-05-08T11:04:41;24.30;93.30
19654;DHT22;9975;48.046;7.804;2023-05-08T11:07:06;24.10;92.10
19654;DHT22;9975;48.046;7.804;2023-05-08T11:12:27;22.90;92.30
19654;DHT22;9975;48.046;7.804;2023-05-08T11:15:04;22.40;92.50
19654;DHT22;9975;48.046;7.804;2023-05-08T11:17:31;22.40;92.20
19654;DHT22;9975;48.046;7.804;2023-05-08T11:20:02;22.10;92.70
19654;DHT22;9975;48.046;7.804;2023-05-08T11:22:32;22.30;92.60
19654;DHT22;9975;48.046;7.804;2023-05-08T11:25:09;22.80;93.90
19654;DHT22;9975;48.046;7.804;2023-05-08T11:30:33;22.30;91.60
19654;DHT22;9975;48.046;7.804;2023-05-08T11:38:34;22.90;91.30
19654;DHT22;9975;48.046;7.804;2023-05-08T11:41:10;23.20;90.10
19654;DHT22;9975;48.046;7.804;2023-05-08T11:46:52;23.30;90.20
19654;DHT22;9975;48.046;7.804;2023-05-08T11:49:20;24.00;85.30
19654;DHT22;9975;48.046;7.804;2023-05-08T11:51:51;24.40;81.80
19654;DHT22;9975;48.046;7.804;2023-05-08T11:54:20;24.20;78.90
19654;DHT22;9975;48.046;7.804;2023-05-08T11:56:47;24.10;79.80
19654;DHT22;9975;48.046;7.804;2023-05-08T11:59:13;24.40;79.40
19654;DHT22;9975;48.046;7.804;2023-05-08T12:01:39;24.50;81.30
19654;DHT22;9975;48.046;7.804;2023-05-08T12:04:06;25.20;79.80
19654;DHT22;9975;48.046;7.804;2023-05-08T12:06:34;24.30;72.80
19654;DHT22;9975;48.046;7.804;2023-05-08T12:09:00;24.50;76.00
19654;DHT22;9975;48.046;7.804;2023-05-08T12:11:27;24.60;77.00
19654;DHT22;9975;48.046;7.804;2023-05-08T12:13:53;24.60;77.40
19654;DHT22;9975;48.046;7.804;2023-05-08T12:16:21;25.30;76.00
19654;DHT22;9975;48.046;7.804;2023-05-08T12:18:49;25.70;72.90
19654;DHT22;9975;48.046;7.804;2023-05-08T12:21:15;25.50;72.40
19654;DHT22;9975;48.046;7.804;2023-05-08T12:23:41;25.70;68.50
19654;DHT22;9975;48.046;7.804;2023-05-08T12:26:07;26.20;67.30
19654;DHT22;9975;48.046;7.804;2023-05-08T12:28:33;25.80;67.00
19654;DHT22;9975;48.046;7.804;2023-05-08T12:31:02;25.70;66.30
19654;DHT22;9975;48.046;7.804;2023-05-08T12:33:27;25.90;67.10
19654;DHT22;9975;48.046;7.804;2023-05-08T12:35:55;25.70;61.70
19654;DHT22;9975;48.046;7.804;2023-05-08T12:38:25;26.00;65.70
19654;DHT22;9975;48.046;7.804;2023-05-08T12:40:52;25.60;63.40
19654;DHT22;9975;48.046;7.804;2023-05-08T12:43:20;25.30;62.80
19654;DHT22;9975;48.046;7.804;2023-05-08T12:45:46;25.40;63.10
19654;DHT22;9975;48.046;7.804;2023-05-08T12:48:14;25.90;63.00
19654;DHT22;9975;48.046;7.804;2023-05-08T12:50:42;26.30;61.00
19654;DHT22;9975;48.046;7.804;2023-05-08T12:53:12;26.00;60.80
19654;DHT22;9975;48.046;7.804;2023-05-08T12:55:40;25.10;60.50
19654;DHT22;9975;48.046;7.804;2023-05-08T12:58:09;24.70;62.80
19654;DHT22;9975;48.046;7.804;2023-05-08T13:00:44;24.60;65.00
19654;DHT22;9975;48.046;7.804;2023-05-08T13:03:25;24.50;63.20
19654;DHT22;9975;48.046;7.804;2023-05-08T13:05:51;25.10;64.00
19654;DHT22;9975;48.046;7.804;2023-05-08T13:08:18;25.60;60.10
19654;DHT22;9975;48.046;7.804;2023-05-08T13:10:51;26.10;59.20
19654;DHT22;9975;48.046;7.804;2023-05-08T13:13:22;25.90;58.70
19654;DHT22;9975;48.046;7.804;2023-05-08T13:15:49;26.10;57.50
19654;DHT22;9975;48.046;7.804;2023-05-08T13:18:16;26.20;56.90
19654;DHT22;9975;48.046;7.804;2023-05-08T13:20:42;25.40;58.30
19654;DHT22;9975;48.046;7.804;2023-05-08T13:23:08;25.20;59.30
19654;DHT22;9975;48.046;7.804;2023-05-08T13:25:35;24.90;58.30
19654;DHT22;9975;48.046;7.804;2023-05-08T13:28:02;24.60;59.60
19654;DHT22;9975;48.046;7.804;2023-05-08T13:30:27;24.40;58.30
19654;DHT22;9975;48.046;7.804;2023-05-08T13:32:53;23.90;59.80
19654;DHT22;9975;48.046;7.804;2023-05-08T13:35:20;23.80;62.40
19654;DHT22;9975;48.046;7.804;2023-05-08T13:37:46;23.60;62.50
19654;DHT22;9975;48.046;7.804;2023-05-08T13:40:13;23.90;64.50
19654;DHT22;9975;48.046;7.804;2023-05-08T13:42:39;23.50;64.10
19654;DHT22;9975;48.046;7.804;2023-05-08T13:45:05;23.10;64.30
19654;DHT22;9975;48.046;7.804;2023-05-08T13:47:31;22.90;63.70
19654;DHT22;9975;48.046;7.804;2023-05-08T13:49:57;23.10;64.60
19654;DHT22;9975;48.046;7.804;2023-05-08T13:52:23;22.60;66.30
19654;DHT22;9975;48.046;7.804;2023-05-08T13:54:49;22.60;67.40
19654;DHT22;9975;48.046;7.804;2023-05-08T13:57:15;22.60;68.20
19654;DHT22;9975;48.046;7.804;2023-05-08T13:59:40;22.50;70.30
19654;DHT22;9975;48.046;7.804;2023-05-08T14:02:06;22.50;74.10
19654;DHT22;9975;48.046;7.804;2023-05-08T14:04:31;22.40;76.10
19654;DHT22;9975;48.046;7.804;2023-05-08T14:06:57;22.20;78.20
19654;DHT22;9975;48.046;7.804;2023-05-08T14:09:23;22.10;81.90
19654;DHT22;9975;48.046;7.804;2023-05-08T14:11:49;21.90;85.40
19654;DHT22;9975;48.046;7.804;2023-05-08T14:14:14;21.80;87.90
19654;DHT22;9975;48.046;7.804;2023-05-08T14:16:40;21.90;88.30
19654;DHT22;9975;48.046;7.804;2023-05-08T14:19:05;22.10;88.40
19654;DHT22;9975;48.046;7.804;2023-05-08T14:21:31;21.90;90.00
19654;DHT22;9975;48.046;7.804;2023-05-08T14:23:57;21.90;89.40
19654;DHT22;9975;48.046;7.804;2023-05-08T14:26:22;21.80;90.70
19654;DHT22;9975;48.046;7.804;2023-05-08T14:28:48;21.60;92.00
19654;DHT22;9975;48.046;7.804;2023-05-08T14:31:32;21.20;93.70
19654;DHT22;9975;48.046;7.804;2023-05-08T14:33:58;20.80;95.50
19654;DHT22;9975;48.046;7.804;2023-05-08T14:36:24;20.50;96.80
19654;DHT22;9975;48.046;7.804;2023-05-08T14:38:49;20.50;97.40
19654;DHT22;9975;48.046;7.804;2023-05-08T14:41:15;20.00;99.80
19654;DHT22;9975;48.046;7.804;2023-05-08T14:43:41;19.70;99.90
19654;DHT22;9975;48.046;7.804;2023-05-08T14:46:07;19.50;99.90
19654;DHT22;9975;48.046;7.804;2023-05-08T14:48:32;19.50;99.90
19654;DHT22;9975;48.046;7.804;2023-05-08T14:50:58;19.40;99.90
19654;DHT22;9975;48.046;7.804;2023-05-08T14:53:24;19.30;99.90
19654;DHT22;9975;48.046;7.804;2023-05-08T14:55:49;19.00;99.90
19654;DHT22;9975;48.046;7.804;2023-05-08T14:58:15;19.00;99.90
19654;DHT22;9975;48.046;7.804;2023-05-08T15:00:40;19.00;99.90
19654;DHT22;9975;48.046;7.804;2023-05-08T15:03:06;19.00;99.90
19654;DHT22;9975;48.046;7.804;2023-05-08T15:05:32;19.20;99.90
19654;DHT22;9975;48.046;7.804;2023-05-08T15:07:58;19.10;99.90
19654;DHT22;9975;48.046;7.804;2023-05-08T15:10:23;19.10;99.90
19654;DHT22;9975;48.046;7.804;2023-05-08T15:12:49;19.00;99.90
19654;DHT22;9975;48.046;7.804;2023-05-08T15:15:15;19.20;99.90
19654;DHT22;9975;48.046;7.804;2023-05-08T15:17:41;19.40;99.90
19654;DHT22;9975;48.046;7.804;2023-05-08T15:20:07;19.40;99.90
19654;DHT22;9975;48.046;7.804;2023-05-08T15:22:33;19.40;99.90
19654;DHT22;9975;48.046;7.804;2023-05-08T15:24:59;19.40;99.90
19654;DHT22;9975;48.046;7.804;2023-05-08T15:27:30;19.40;99.90
19654;DHT22;9975;48.046;7.804;2023-05-08T15:29:56;19.30;99.90
19654;DHT22;9975;48.046;7.804;2023-05-08T15:32:22;19.40;99.90
19654;DHT22;9975;48.046;7.804;2023-05-08T15:34:47;19.40;99.90
19654;DHT22;9975;48.046;7.804;2023-05-08T15:37:13;19.40;99.90
19654;DHT22;9975;48.046;7.804;2023-05-08T15:39:38;19.30;99.90
19654;DHT22;9975;48.046;7.804;2023-05-08T15:42:04;19.20;99.90
19654;DHT22;9975;48.046;7.804;2023-05-08T15:44:30;19.10;99.90
19654;DHT22;9975;48.046;7.804;2023-05-08T15:46:56;19.20;99.90
19654;DHT22;9975;48.046;7.804;2023-05-08T15:49:22;19.20;99.90
19654;DHT22;9975;48.046;7.804;2023-05-08T15:51:53;19.10;99.90
19654;DHT22;9975;48.046;7.804;2023-05-08T15:54:19;19.10;99.90
19654;DHT22;9975;48.046;7.804;2023-05-08T15:56:45;19.00;99.90
19654;DHT22;9975;48.046;7.804;2023-05-08T15:59:10;18.90;99.90
19654;DHT22;9975;48.046;7.804;2023-05-08T16:01:36;19.10;99.90
19654;DHT22;9975;48.046;7.804;2023-05-08T16:04:03;19.20;99.90
19654;DHT22;9975;48.046;7.804;2023-05-08T16:06:29;19.20;99.90
19654;DHT22;9975;48.046;7.804;2023-05-08T16:08:55;19.10;99.90
19654;DHT22;9975;48.046;7.804;2023-05-08T16:11:21;18.80;99.90
19654;DHT22;9975;48.046;7.804;2023-05-08T16:13:47;18.80;99.90
19654;DHT22;9975;48.046;7.804;2023-05-08T16:16:12;18.80;99.90
19654;DHT22;9975;48.046;7.804;2023-05-08T16:18:38;18.80;99.90
19654;DHT22;9975;48.046;7.804;2023-05-08T16:21:08;18.80;99.90
19654;DHT22;9975;48.046;7.804;2023-05-08T16:23:34;18.80;99.90
19654;DHT22;9975;48.046;7.804;2023-05-08T16:26:00;18.90;99.90
19654;DHT22;9975;48.046;7.804;2023-05-08T16:28:26;18.80;99.90
19654;DHT22;9975;48.046;7.804;2023-05-08T16:30:51;18.80;99.90
19654;DHT22;9975;48.046;7.804;2023-05-08T16:33:17;18.80;99.90
19654;DHT22;9975;48.046;7.804;2023-05-08T16:35:42;18.80;99.90
19654;DHT22;9975;48.046;7.804;2023-05-08T16:38:08;18.80;99.90
19654;DHT22;9975;48.046;7.804;2023-05-08T16:40:34;18.80;99.90
19654;DHT22;9975;48.046;7.804;2023-05-08T16:43:00;18.90;99.90
19654;DHT22;9975;48.046;7.804;2023-05-08T16:45:26;19.00;99.90
19654;DHT22;9975;48.046;7.804;2023-05-08T16:47:51;18.90;99.90
19654;DHT22;9975;48.046;7.804;2023-05-08T16:50:17;18.80;99.90
19654;DHT22;9975;48.046;7.804;2023-05-08T16:52:43;18.80;99.90
19654;DHT22;9975;48.046;7.804;2023-05-08T16:55:08;18.80;99.90
19654;DHT22;9975;48.046;7.804;2023-05-08T16:57:36;18.80;99.90
19654;DHT22;9975;48.046;7.804;2023-05-08T17:00:03;18.60;99.90
19654;DHT22;9975;48.046;7.804;2023-05-08T17:02:29;18.70;99.90
19654;DHT22;9975;48.046;7.804;2023-05-08T17:04:55;18.60;99.90
19654;DHT22;9975;48.046;7.804;2023-05-08T17:07:21;18.60;99.90
19654;DHT22;9975;48.046;7.804;2023-05-08T17:09:47;18.60;99.90
19654;DHT22;9975;48.046;7.804;2023-05-08T17:12:17;18.70;99.90
19654;DHT22;9975;48.046;7.804;2023-05-08T17:14:43;18.70;99.90
19654;DHT22;9975;48.046;7.804;2023-05-08T17:17:08;18.50;99.90
19654;DHT22;9975;48.046;7.804;2023-05-08T17:19:34;18.40;99.90
19654;DHT22;9975;48.046;7.804;2023-05-08T17:22:00;18.30;99.90
19654;DHT22;9975;48.046;7.804;2023-05-08T17:24:26;18.30;99.90
19654;DHT22;9975;48.046;7.804;2023-05-08T17:26:51;18.30;99.90
19654;DHT22;9975;48.046;7.804;2023-05-08T17:29:17;18.30;99.90
19654;DHT22;9975;48.046;7.804;2023-05-08T17:31:43;18.30;99.90
19654;DHT22;9975;48.046;7.804;2023-05-08T17:34:08;18.30;99.90
19654;DHT22;9975;48.046;7.804;2023-05-08T17:36:34;18.30;99.90
19654;DHT22;9975;48.046;7.804;2023-05-08T17:38:59;18.30;99.90
19654;DHT22;9975;48.046;7.804;2023-05-08T17:41:25;18.30;99.90
19654;DHT22;9975;48.046;7.804;2023-05-08T17:43:52;18.30;99.90
19654;DHT22;9975;48.046;7.804;2023-05-08T17:46:18;18.40;99.90
19654;DHT22;9975;48.046;7.804;2023-05-08T17:48:43;18.30;99.90
19654;DHT22;9975;48.046;7.804;2023-05-08T17:51:13;18.30;99.90
19654;DHT22;9975;48.046;7.804;2023-05-08T17:53:38;18.40;99.90
19654;DHT22;9975;48.046;7.804;2023-05-08T17:56:05;18.30;99.90
19654;DHT22;9975;48.046;7.804;2023-05-08T17:58:31;18.20;99.90
19654;DHT22;9975;48.046;7.804;2023-05-08T18:00:56;18.10;99.90
19654;DHT22;9975;48.046;7.804;2023-05-08T18:03:22;18.00;99.90
19654;DHT22;9975;48.046;7.804;2023-05-08T18:05:48;17.90;99.90
19654;DHT22;9975;48.046;7.804;2023-05-08T18:08:14;17.90;99.90